Stegall, Nebraska
Current Conditions -  °F | °C
As of 11:53 AM on Monday 20 Oct 2014 (Local Time) from KTOR Reporting Station
Clear Clear  
Wind Chill: 69°   Ceiling: Unl
Heat Index: 69°   Visibility: 10mi
Dew Point: 42°   Wind: 6mph
Humidity: 38%   Direction: 120°ESE
Pressure: 30.07"   Gusts: NA
Location:  41.9727°N, 103.904°W
Report Text: KTOR 201753Z AUTO 12005KT 10SM CLR 21/06 A3007 RMK AO2 SLP158 T02060056 10206 20006 58010
Loading
Personal Weather Stations






























Interactive Weather Map
Tropical Storm Tracking
New forecast layout! Learn more

10-Day Weather Forecast

Advertisements
Track Severe Weather on mobile